createdAt,value
2022-10-25T00:01:25.995Z,79.60
2022-10-25T00:03:53.406Z,79.90
2022-10-25T00:06:21.011Z,79.80
2022-10-25T00:08:48.120Z,79.70
2022-10-25T00:11:27.144Z,79.70
2022-10-25T00:13:55.989Z,80.20
2022-10-25T00:16:31.004Z,80.00
2022-10-25T00:19:00.720Z,80.20
2022-10-25T00:21:27.424Z,80.20
2022-10-25T00:23:54.249Z,80.10
2022-10-25T00:26:21.345Z,80.10
2022-10-25T00:28:48.252Z,80.20
2022-10-25T00:31:16.624Z,80.40
2022-10-25T00:33:44.372Z,80.50
2022-10-25T00:36:14.204Z,80.70
2022-10-25T00:38:44.017Z,80.90
2022-10-25T00:41:11.962Z,80.80
2022-10-25T00:43:52.722Z,80.80
2022-10-25T00:46:19.845Z,81.10
2022-10-25T00:49:06.060Z,80.60
2022-10-25T00:51:38.436Z,81.50
2022-10-25T00:54:06.737Z,80.90
2022-10-25T00:56:40.127Z,80.60
2022-10-25T00:59:10.634Z,80.60
2022-10-25T01:01:39.807Z,80.60
2022-10-25T01:04:10.420Z,80.40
2022-10-25T01:06:41.445Z,80.20
2022-10-25T01:09:14.377Z,80.00
2022-10-25T01:11:41.094Z,79.90
2022-10-25T01:14:12.884Z,79.60
2022-10-25T01:17:19.868Z,79.40
2022-10-25T01:20:18.857Z,79.70
2022-10-25T01:23:19.398Z,79.50
2022-10-25T01:26:02.160Z,79.40
2022-10-25T01:29:05.740Z,78.90
2022-10-25T01:31:50.597Z,79.40
2022-10-25T01:34:38.529Z,79.20
2022-10-25T01:37:21.894Z,79.20
2022-10-25T01:40:05.626Z,79.20
2022-10-25T01:42:40.798Z,79.20
2022-10-25T01:45:10.701Z,79.10
2022-10-25T01:47:40.293Z,79.20
2022-10-25T01:50:16.883Z,79.20
2022-10-25T01:52:45.794Z,79.30
2022-10-25T01:55:13.965Z,79.50
2022-10-25T01:57:42.696Z,79.60
2022-10-25T02:00:22.382Z,79.80
2022-10-25T02:03:22.521Z,80.00
2022-10-25T02:05:57.731Z,80.80
2022-10-25T02:08:48.564Z,80.20
2022-10-25T02:11:23.877Z,80.40
2022-10-25T02:14:02.190Z,79.80
2022-10-25T02:16:34.307Z,79.50
2022-10-25T02:19:06.402Z,79.20
2022-10-25T02:21:35.714Z,79.20
2022-10-25T02:24:10.449Z,79.20
2022-10-25T02:26:38.781Z,79.30
2022-10-25T02:29:08.060Z,79.30
2022-10-25T02:31:41.237Z,79.30
2022-10-25T02:34:07.948Z,79.40
2022-10-25T02:36:37.821Z,79.50
2022-10-25T02:39:04.761Z,79.60
2022-10-25T02:41:34.294Z,79.60
2022-10-25T02:44:00.912Z,79.70
2022-10-25T02:46:29.813Z,79.60
2022-10-25T02:48:56.478Z,79.60
2022-10-25T02:51:25.626Z,79.60
2022-10-25T02:53:54.669Z,79.60
2022-10-25T02:56:22.399Z,79.50
2022-10-25T02:58:51.175Z,79.40
2022-10-25T03:01:19.993Z,79.30
2022-10-25T03:03:48.789Z,79.10
2022-10-25T03:06:15.877Z,78.80
2022-10-25T03:08:45.100Z,78.70
2022-10-25T03:11:13.066Z,78.60
2022-10-25T03:13:39.728Z,78.60
2022-10-25T03:16:06.772Z,78.60
2022-10-25T03:18:33.598Z,78.60
2022-10-25T03:21:01.954Z,78.90
2022-10-25T03:23:29.188Z,78.80
2022-10-25T03:25:58.230Z,78.90
2022-10-25T03:28:27.323Z,79.00
2022-10-25T03:30:55.687Z,79.00
2022-10-25T03:33:22.896Z,79.00
2022-10-25T03:35:51.221Z,79.00
2022-10-25T03:38:20.957Z,78.90
2022-10-25T03:40:49.780Z,78.70
2022-10-25T03:43:16.625Z,78.60
2022-10-25T03:45:43.267Z,78.60
2022-10-25T03:48:10.101Z,78.60
2022-10-25T03:50:36.829Z,78.50
2022-10-25T03:53:04.532Z,78.40
2022-10-25T03:55:31.653Z,78.40
2022-10-25T03:58:00.463Z,78.50
2022-10-25T04:00:27.880Z,78.50
2022-10-25T04:03:01.932Z,78.60
2022-10-25T04:05:29.789Z,78.60
2022-10-25T04:07:59.673Z,78.50
2022-10-25T04:10:27.005Z,78.50
2022-10-25T04:12:54.790Z,78.60
2022-10-25T04:15:23.194Z,78.50
2022-10-25T04:17:51.335Z,78.40
2022-10-25T04:20:18.821Z,78.70
2022-10-25T04:22:45.489Z,78.60
2022-10-25T04:25:12.172Z,78.40
2022-10-25T04:27:38.853Z,78.30
2022-10-25T04:30:05.857Z,78.30
2022-10-25T04:32:32.476Z,78.20
2022-10-25T04:35:00.080Z,78.20
2022-10-25T04:37:26.693Z,78.30
2022-10-25T04:39:53.317Z,78.10
2022-10-25T04:42:19.928Z,78.00
2022-10-25T04:44:46.540Z,77.90
2022-10-25T04:47:13.928Z,77.70
2022-10-25T04:49:40.505Z,77.50
2022-10-25T04:52:09.234Z,77.50
2022-10-25T04:54:35.868Z,77.50
2022-10-25T04:57:03.736Z,77.50
2022-10-25T04:59:30.323Z,77.40
2022-10-25T05:01:56.926Z,77.30
2022-10-25T05:04:23.645Z,77.30
2022-10-25T05:06:50.282Z,77.30
2022-10-25T05:09:16.844Z,77.30
2022-10-25T05:11:43.453Z,77.30
2022-10-25T05:14:10.045Z,77.40
2022-10-25T05:16:39.252Z,77.50
2022-10-25T05:19:05.969Z,77.50
2022-10-25T05:21:35.438Z,77.60
2022-10-25T05:24:02.769Z,77.60
2022-10-25T05:26:33.612Z,77.40
2022-10-25T05:29:00.367Z,77.30
2022-10-25T05:31:29.714Z,77.20
2022-10-25T05:33:59.667Z,77.10
2022-10-25T05:36:29.258Z,77.10
2022-10-25T05:38:56.039Z,77.00
2022-10-25T05:41:23.024Z,77.00
2022-10-25T05:43:49.674Z,77.00
2022-10-25T05:46:24.410Z,77.00
2022-10-25T05:48:51.839Z,77.20
2022-10-25T05:51:42.123Z,77.00
2022-10-25T05:54:13.809Z,77.90
2022-10-25T05:56:41.220Z,77.10
2022-10-25T05:59:13.225Z,77.00
2022-10-25T06:01:46.795Z,77.10
2022-10-25T06:04:14.367Z,77.30
2022-10-25T06:06:44.152Z,77.10
2022-10-25T06:09:11.642Z,77.10
2022-10-25T06:11:39.093Z,77.20
2022-10-25T06:14:06.330Z,77.30
2022-10-25T06:16:33.005Z,77.20
2022-10-25T06:18:59.671Z,77.30
2022-10-25T06:21:28.720Z,77.30
2022-10-25T06:23:56.392Z,77.40
2022-10-25T06:26:25.733Z,77.30
2022-10-25T06:28:54.536Z,77.40
2022-10-25T06:31:21.701Z,77.40
2022-10-25T06:33:48.546Z,77.30
2022-10-25T06:36:20.509Z,77.50
2022-10-25T06:38:48.017Z,77.50
2022-10-25T06:41:17.637Z,77.50
2022-10-25T06:43:44.401Z,77.70
2022-10-25T06:46:22.923Z,77.70
2022-10-25T06:48:50.674Z,77.80
2022-10-25T06:51:21.877Z,78.30
2022-10-25T06:53:58.800Z,77.60
2022-10-25T06:56:26.919Z,77.70
2022-10-25T06:58:54.339Z,77.70
2022-10-25T07:01:22.360Z,77.90
2022-10-25T07:03:50.849Z,78.10
2022-10-25T07:06:21.789Z,78.20
2022-10-25T07:08:55.215Z,78.10
2022-10-25T07:11:23.256Z,78.10
2022-10-25T07:13:50.198Z,77.90
2022-10-25T07:16:18.841Z,77.80
2022-10-25T07:18:46.401Z,77.80
2022-10-25T07:21:21.812Z,77.50
2022-10-25T07:23:50.152Z,77.30
2022-10-25T07:26:27.880Z,77.00
2022-10-25T07:28:56.966Z,76.80
2022-10-25T07:31:26.849Z,76.90
2022-10-25T07:33:54.724Z,76.90
2022-10-25T07:36:21.699Z,76.90
2022-10-25T07:38:48.499Z,76.90
2022-10-25T07:41:15.806Z,77.00
2022-10-25T07:43:42.525Z,76.90
2022-10-25T07:46:11.874Z,76.80
2022-10-25T07:48:38.609Z,76.80
2022-10-25T07:51:07.112Z,76.50
2022-10-25T07:53:33.898Z,76.70
2022-10-25T07:56:00.730Z,76.60
2022-10-25T07:58:27.337Z,76.50
2022-10-25T08:01:04.048Z,76.20
2022-10-25T08:03:31.696Z,75.70
2022-10-25T08:05:59.128Z,75.40
2022-10-25T08:08:25.815Z,75.00
2022-10-25T08:10:53.201Z,74.70
2022-10-25T08:13:19.951Z,74.50
2022-10-25T08:15:50.889Z,74.30
2022-10-25T08:18:17.746Z,74.20
2022-10-25T08:21:01.355Z,74.40
2022-10-25T08:23:30.661Z,74.40
2022-10-25T08:25:57.353Z,74.10
2022-10-25T08:28:23.951Z,74.20
2022-10-25T08:30:50.636Z,74.20
2022-10-25T08:33:17.343Z,74.10
2022-10-25T08:35:43.941Z,74.00
2022-10-25T08:38:10.549Z,73.90
2022-10-25T08:40:54.107Z,73.80
2022-10-25T08:43:44.149Z,73.60
2022-10-25T08:46:21.936Z,73.50
2022-10-25T08:49:11.702Z,73.70
2022-10-25T08:51:41.878Z,73.40
2022-10-25T08:54:27.303Z,73.30
2022-10-25T08:57:24.501Z,72.80
2022-10-25T09:00:00.898Z,72.80
2022-10-25T09:02:48.703Z,72.30
2022-10-25T09:05:37.541Z,72.40
2022-10-25T09:08:24.504Z,72.50
2022-10-25T09:11:15.225Z,72.10
2022-10-25T09:14:05.292Z,71.90
2022-10-25T09:16:42.821Z,71.90
2022-10-25T09:19:38.740Z,72.10
2022-10-25T09:22:27.086Z,71.70
2022-10-25T09:25:15.421Z,71.50
2022-10-25T09:28:06.043Z,71.80
2022-10-25T09:30:39.538Z,71.50
2022-10-25T09:35:48.942Z,71.50
2022-10-25T09:38:49.746Z,71.30
2022-10-25T09:41:35.377Z,70.70
2022-10-25T09:44:12.921Z,70.80
2022-10-25T09:46:51.986Z,70.10
2022-10-25T09:49:29.306Z,69.90
2022-10-25T09:52:21.125Z,70.20
2022-10-25T09:54:50.789Z,69.70
2022-10-25T09:57:17.424Z,70.10
2022-10-25T09:59:48.919Z,70.20
2022-10-25T10:02:20.345Z,70.00
2022-10-25T10:04:47.114Z,69.70
2022-10-25T10:07:29.472Z,69.60
2022-10-25T10:10:00.324Z,68.90
2022-10-25T10:12:50.242Z,69.40
2022-10-25T10:15:26.048Z,68.90
2022-10-25T10:18:22.928Z,69.50
2022-10-25T10:21:00.223Z,68.70
2022-10-25T10:23:29.797Z,68.80
2022-10-25T10:25:59.772Z,69.20
2022-10-25T10:28:26.417Z,69.50
2022-10-25T10:30:58.458Z,69.50
2022-10-25T10:33:32.520Z,69.60
2022-10-25T10:36:20.157Z,69.30
2022-10-25T10:38:47.157Z,69.30
2022-10-25T10:41:21.121Z,69.60
2022-10-25T10:43:47.766Z,69.00
2022-10-25T10:46:16.669Z,68.90
2022-10-25T10:48:52.639Z,69.00
2022-10-25T10:54:24.973Z,68.20
2022-10-25T10:57:02.839Z,67.10
2022-10-25T10:59:40.301Z,67.40
2022-10-25T11:02:22.114Z,67.20
2022-10-25T11:04:50.172Z,66.70
2022-10-25T11:07:30.303Z,67.30
2022-10-25T11:10:14.973Z,66.10
2022-10-25T11:12:44.489Z,65.80
2022-10-25T11:15:15.531Z,66.10
2022-10-25T11:18:04.928Z,66.20
2022-10-25T11:20:48.630Z,65.70
2022-10-25T11:23:36.394Z,65.40
2022-10-25T11:26:15.005Z,65.40
2022-10-25T11:29:03.582Z,65.20
2022-10-25T11:31:57.724Z,65.10
2022-10-25T11:34:37.280Z,65.10
2022-10-25T11:37:10.573Z,65.20
2022-10-25T11:39:57.962Z,65.60
2022-10-25T11:42:59.911Z,65.20
2022-10-25T11:45:40.433Z,64.80
2022-10-25T11:48:50.315Z,65.20
2022-10-25T11:51:42.018Z,65.10
2022-10-25T11:54:14.523Z,65.10
2022-10-25T11:56:46.537Z,65.40
2022-10-25T11:59:38.669Z,64.70
2022-10-25T12:02:35.301Z,64.30
2022-10-25T12:05:10.019Z,64.20
2022-10-25T12:07:41.233Z,64.10
2022-10-25T12:10:07.877Z,64.50
2022-10-25T12:12:53.599Z,64.90
2022-10-25T12:15:42.948Z,64.70
2022-10-25T12:18:17.569Z,64.70
2022-10-25T12:20:48.893Z,64.80
2022-10-25T12:23:20.037Z,65.20
2022-10-25T12:25:51.076Z,65.40
2022-10-25T12:28:25.267Z,65.40
2022-10-25T12:30:58.387Z,65.60
2022-10-25T12:33:37.542Z,65.90
2022-10-25T12:36:08.645Z,65.80
2022-10-25T12:38:37.998Z,65.30
2022-10-25T12:41:17.335Z,65.10
2022-10-25T12:44:14.642Z,64.60
2022-10-25T12:46:47.215Z,63.40
2022-10-25T12:49:48.328Z,63.00
2022-10-25T12:52:39.907Z,62.20
2022-10-25T12:55:43.725Z,62.00
2022-10-25T12:58:19.867Z,62.50
2022-10-25T13:01:04.586Z,62.50
2022-10-25T13:03:48.033Z,62.10
2022-10-25T13:06:26.829Z,61.70
2022-10-25T13:08:59.907Z,61.60
2022-10-25T13:11:36.121Z,61.40
2022-10-25T13:14:03.480Z,60.60
2022-10-25T13:16:32.879Z,61.00
2022-10-25T13:19:42.769Z,60.80
2022-10-25T13:22:28.071Z,60.30
2022-10-25T13:24:55.269Z,60.00
2022-10-25T13:27:30.543Z,60.60
2022-10-25T13:30:02.327Z,59.70
2022-10-25T13:32:41.255Z,58.90
2022-10-25T13:35:19.721Z,59.20
2022-10-25T13:37:49.820Z,58.90
2022-10-25T13:40:29.770Z,59.50
2022-10-25T13:43:04.963Z,58.90
2022-10-25T13:45:38.055Z,59.20
2022-10-25T13:48:18.988Z,58.10
2022-10-25T13:50:55.297Z,57.90
2022-10-25T13:53:26.021Z,58.10
2022-10-25T13:56:15.881Z,58.10
2022-10-25T13:58:54.401Z,57.00
2022-10-25T14:01:21.387Z,57.50
2022-10-25T14:03:53.056Z,58.20
2022-10-25T14:06:30.140Z,56.60
2022-10-25T14:09:08.335Z,56.40
2022-10-25T14:12:07.700Z,56.60
2022-10-25T14:14:56.821Z,56.60
2022-10-25T14:17:34.877Z,56.30
2022-10-25T14:20:08.259Z,55.80
2022-10-25T14:22:40.269Z,56.60
2022-10-25T14:25:21.250Z,56.40
2022-10-25T14:27:48.265Z,56.40
2022-10-25T14:30:27.152Z,57.50
2022-10-25T14:33:05.842Z,56.00
2022-10-25T14:35:50.320Z,55.80
2022-10-25T14:38:22.302Z,56.00
2022-10-25T14:41:12.524Z,56.40
2022-10-25T14:43:42.357Z,55.70
2022-10-25T14:46:16.110Z,56.40
2022-10-25T14:48:47.902Z,55.20
2022-10-25T14:51:21.521Z,55.50
2022-10-25T14:54:05.566Z,55.40
2022-10-25T14:56:37.272Z,54.80
2022-10-25T14:59:06.482Z,55.10
2022-10-25T15:01:35.925Z,55.20
2022-10-25T15:04:02.733Z,55.20
2022-10-25T15:06:31.857Z,55.40
2022-10-25T15:09:41.627Z,55.10
2022-10-25T15:12:17.853Z,55.30
2022-10-25T15:14:46.444Z,54.50
2022-10-25T15:17:34.033Z,55.00
2022-10-25T15:20:26.154Z,54.60
2022-10-25T15:23:05.194Z,55.50
2022-10-25T15:25:37.307Z,55.50
2022-10-25T15:28:12.455Z,55.90
2022-10-25T15:31:02.192Z,55.90
2022-10-25T15:33:31.461Z,55.70
2022-10-25T15:36:03.577Z,56.20
2022-10-25T15:38:48.189Z,56.20
2022-10-25T15:41:19.794Z,56.70
2022-10-25T15:43:46.435Z,56.80
2022-10-25T15:46:30.867Z,57.20
2022-10-25T15:49:00.949Z,56.90
2022-10-25T15:51:32.032Z,57.60
2022-10-25T15:53:58.650Z,57.70
2022-10-25T15:56:25.230Z,58.10
2022-10-25T15:58:51.861Z,58.30
2022-10-25T16:01:19.211Z,58.50
2022-10-25T16:03:45.853Z,58.60
2022-10-25T16:06:14.037Z,58.90
2022-10-25T16:08:41.457Z,59.10
2022-10-25T16:11:18.232Z,59.40
2022-10-25T16:13:52.345Z,59.50
2022-10-25T16:16:41.581Z,59.60
2022-10-25T16:19:19.498Z,59.80
2022-10-25T16:21:48.672Z,60.20
2022-10-25T16:24:15.314Z,60.50
2022-10-25T16:26:46.489Z,60.90
2022-10-25T16:29:22.288Z,61.30
2022-10-25T16:31:50.925Z,61.60
2022-10-25T16:34:20.734Z,62.60
2022-10-25T16:36:49.041Z,62.30
2022-10-25T16:39:16.438Z,62.40
2022-10-25T16:41:44.679Z,62.60
2022-10-25T16:44:18.604Z,62.90
2022-10-25T16:46:45.859Z,63.00
2022-10-25T16:49:18.408Z,63.00
2022-10-25T16:51:52.295Z,63.10
2022-10-25T16:54:23.838Z,63.30
2022-10-25T16:56:51.759Z,63.30
2022-10-25T16:59:19.523Z,63.50
2022-10-25T17:01:53.557Z,63.80
2022-10-25T17:04:24.205Z,63.90
2022-10-25T17:06:58.325Z,64.00
2022-10-25T17:09:45.372Z,64.20
2022-10-25T17:12:14.549Z,64.10
2022-10-25T17:14:41.318Z,64.40
2022-10-25T17:17:07.988Z,64.40
2022-10-25T17:19:35.080Z,64.50
2022-10-25T17:22:01.717Z,64.60
2022-10-25T17:24:28.384Z,64.70
2022-10-25T17:26:55.026Z,65.50
2022-10-25T17:29:27.092Z,65.10
2022-10-25T17:31:53.757Z,65.10
2022-10-25T17:34:20.539Z,65.20
2022-10-25T17:36:47.178Z,65.20
2022-10-25T17:39:15.986Z,65.30
2022-10-25T17:41:45.022Z,65.30
2022-10-25T17:44:11.720Z,65.50
2022-10-25T17:46:40.645Z,65.80
2022-10-25T17:49:07.271Z,65.80
2022-10-25T17:51:35.582Z,65.70
2022-10-25T17:54:02.160Z,65.60
2022-10-25T17:56:28.828Z,65.50
2022-10-25T17:58:58.109Z,65.50
2022-10-25T18:01:27.098Z,65.80
2022-10-25T18:03:54.891Z,65.80
2022-10-25T18:06:30.758Z,65.70
2022-10-25T18:08:58.973Z,65.80
2022-10-25T18:11:28.121Z,66.00
2022-10-25T18:13:56.790Z,66.00
2022-10-25T18:16:27.281Z,66.70
2022-10-25T18:18:56.289Z,66.10
2022-10-25T18:21:23.442Z,66.20
2022-10-25T18:23:55.232Z,66.10
2022-10-25T18:26:22.030Z,66.20
2022-10-25T18:28:51.168Z,66.20
2022-10-25T18:31:20.857Z,66.20
2022-10-25T18:33:49.980Z,66.30
2022-10-25T18:36:21.623Z,67.10
2022-10-25T18:38:55.953Z,66.40
2022-10-25T18:41:28.860Z,66.40
2022-10-25T18:44:03.823Z,66.60
2022-10-25T18:46:32.722Z,66.60
2022-10-25T18:48:59.690Z,66.50
2022-10-25T18:51:29.051Z,66.60
2022-10-25T18:53:58.029Z,66.50
2022-10-25T18:56:27.980Z,66.50
2022-10-25T18:58:56.813Z,66.50
2022-10-25T19:01:25.924Z,66.50
2022-10-25T19:03:55.948Z,66.50
2022-10-25T19:06:25.399Z,66.60
2022-10-25T19:08:56.009Z,66.50
2022-10-25T19:11:23.413Z,66.40
2022-10-25T19:13:57.470Z,66.50
2022-10-25T19:16:25.506Z,66.50
2022-10-25T19:18:54.794Z,66.70
2022-10-25T19:21:23.977Z,66.70
2022-10-25T19:23:54.131Z,66.80
2022-10-25T19:26:23.240Z,66.70
2022-10-25T19:28:58.287Z,66.60
2022-10-25T19:31:29.967Z,66.50
2022-10-25T19:34:00.155Z,66.60
2022-10-25T19:36:39.130Z,66.60
2022-10-25T19:39:10.374Z,66.60
2022-10-25T19:41:37.428Z,66.70
2022-10-25T19:44:06.032Z,66.60
2022-10-25T19:46:37.428Z,67.00
2022-10-25T19:49:08.014Z,66.80
2022-10-25T19:51:37.307Z,66.60
2022-10-25T19:54:11.704Z,66.50
2022-10-25T19:56:44.741Z,66.70
2022-10-25T19:59:15.349Z,66.70
2022-10-25T20:01:45.834Z,67.00
2022-10-25T20:04:13.328Z,66.90
2022-10-25T20:06:41.312Z,66.90
2022-10-25T20:09:09.807Z,66.80
2022-10-25T20:11:36.805Z,66.80
2022-10-25T20:14:04.603Z,66.80
2022-10-25T20:16:32.241Z,66.80
2022-10-25T20:19:00.836Z,66.80
2022-10-25T20:21:36.329Z,66.80
2022-10-25T20:24:09.192Z,66.80
2022-10-25T20:26:41.655Z,67.00
2022-10-25T20:29:20.163Z,67.80
2022-10-25T20:31:52.008Z,67.10
2022-10-25T20:34:21.547Z,67.00
2022-10-25T20:36:48.903Z,67.20
2022-10-25T20:39:17.417Z,67.20
2022-10-25T20:41:44.428Z,67.20
2022-10-25T20:44:11.144Z,67.20
2022-10-25T20:46:40.442Z,67.20
2022-10-25T20:49:07.475Z,67.20
2022-10-25T20:51:39.067Z,67.30
2022-10-25T20:54:09.229Z,67.40
2022-10-25T20:56:38.026Z,67.50
2022-10-25T20:59:07.016Z,67.40
2022-10-25T21:01:33.765Z,67.50
2022-10-25T21:04:00.456Z,67.50
2022-10-25T21:06:28.261Z,67.40
2022-10-25T21:08:54.874Z,67.50
2022-10-25T21:11:21.533Z,67.40
2022-10-25T21:13:48.143Z,67.40
2022-10-25T21:16:15.809Z,67.40
2022-10-25T21:18:43.426Z,67.50
2022-10-25T21:21:15.456Z,67.50
2022-10-25T21:23:45.559Z,67.60
2022-10-25T21:26:12.257Z,67.60
2022-10-25T21:28:41.197Z,67.70
2022-10-25T21:31:11.335Z,67.80
2022-10-25T21:33:40.569Z,67.90
2022-10-25T21:36:16.161Z,67.90
2022-10-25T21:38:45.429Z,67.90
2022-10-25T21:41:20.623Z,67.90
2022-10-25T21:43:49.069Z,68.00
2022-10-25T21:46:19.994Z,67.90
2022-10-25T21:48:47.908Z,68.00
2022-10-25T21:51:17.094Z,68.00
2022-10-25T21:53:45.392Z,68.00
2022-10-25T21:56:14.610Z,68.10
2022-10-25T21:58:42.698Z,68.30
2022-10-25T22:01:12.325Z,68.30
2022-10-25T22:03:40.667Z,68.30
2022-10-25T22:06:12.838Z,68.40
2022-10-25T22:08:40.306Z,69.10
2022-10-25T22:11:12.985Z,68.50
2022-10-25T22:13:40.326Z,68.60
2022-10-25T22:16:16.159Z,68.60
2022-10-25T22:18:43.483Z,68.80
2022-10-25T22:21:12.257Z,68.70
2022-10-25T22:23:39.388Z,68.80
2022-10-25T22:26:10.267Z,68.90
2022-10-25T22:28:40.724Z,69.10
2022-10-25T22:31:19.713Z,69.10
2022-10-25T22:33:46.796Z,69.40
2022-10-25T22:36:14.506Z,69.20
2022-10-25T22:38:41.541Z,69.30
2022-10-25T22:41:17.024Z,69.40
2022-10-25T22:43:44.651Z,69.50
2022-10-25T22:46:16.672Z,69.60
2022-10-25T22:48:46.006Z,69.70
2022-10-25T22:51:12.613Z,69.70
2022-10-25T22:53:40.222Z,69.80
2022-10-25T22:56:13.884Z,69.90
2022-10-25T22:58:42.152Z,70.20
2022-10-25T23:01:14.326Z,70.00
2022-10-25T23:03:48.730Z,70.10
2022-10-25T23:06:17.897Z,70.20
2022-10-25T23:08:44.988Z,70.10
2022-10-25T23:11:20.842Z,70.10
2022-10-25T23:13:47.886Z,70.20
2022-10-25T23:16:18.044Z,70.00
2022-10-25T23:18:45.156Z,70.10
2022-10-25T23:21:17.934Z,70.10
2022-10-25T23:23:45.419Z,70.30
2022-10-25T23:26:25.496Z,70.20
2022-10-25T23:28:52.388Z,70.60
2022-10-25T23:31:19.187Z,70.50
2022-10-25T23:33:49.670Z,70.60
2022-10-25T23:36:19.375Z,70.80
2022-10-25T23:38:48.400Z,70.80
2022-10-25T23:41:15.684Z,71.00
2022-10-25T23:43:42.493Z,71.10
2022-10-25T23:46:12.356Z,71.20
2022-10-25T23:48:39.341Z,71.30
2022-10-25T23:51:08.742Z,71.50
2022-10-25T23:53:36.168Z,71.50
2022-10-25T23:56:05.047Z,71.50
2022-10-25T23:58:31.655Z,71.50
